Flight Track Log - Related Links

Times and Time Zones

All times are in EDT time to prevent confusion due to time zone crossing. See the DAL268 flight status page for this flight to view local times or setup timezone preferences in your user account.

Time Position Orientation Groundspeed Altitude Reporting Facility
EDT Latitude Longitude Course Direction KTS km/h feet Rate Location/Type
Mon 18:19:08 33.6333 -84.4833 64° Northeast 196 364 2,900  Level Atlanta TRACON
Mon 18:20:08 33.6000 -84.5667 244° Southwest 257 476 4,700 2,250 Climbing Atlanta TRACON
Mon 18:21:00 33.7125 -84.0081 101° East  Level FlightAware Approximate
Mon 18:21:08 33.5333 -84.5833 192° South 283 525 7,400  Level Atlanta TRACON
Mon 18:22:00 33.6896 -83.8701 101° East  Level FlightAware Approximate
Mon 18:22:08 33.4500 -84.5500 162° South 326 604 9,200  Level Atlanta TRACON
Mon 18:23:00 33.6665 -83.7322 101° East  Level FlightAware Approximate
Mon 18:23:44 33.4556 -84.3775 88° East 340 629 11,300  Level Atlanta Center
Mon 18:24:00 33.6646 -83.5976 64° Northeast  Level FlightAware Approximate
Mon 18:24:44 33.4683 -84.2481 83° East 366 678 12,500  Level Atlanta Center
Mon 18:25:44 33.5208 -84.1286 62° Northeast 398 737 14,400 1,800 Climbing Atlanta Center
Mon 18:26:44 33.5731 -84.0014 64° Northeast 412 763 16,100 1,750 Climbing Atlanta Center
Mon 18:27:44 33.6167 -83.8667 69° East 426 789 17,900 1,600 Climbing Atlanta Center
Mon 18:28:44 33.6478 -83.7169 76° East 437 810 19,300 1,300 Climbing Atlanta Center
Mon 18:29:44 33.6847 -83.5794 72° East 464 859 20,500 1,500 Climbing Atlanta Center
Mon 18:30:44 33.7406 -83.4417 64° Northeast 464 859 22,300 1,500 Climbing Atlanta Center
Mon 18:31:44 33.7983 -83.3014 64° Northeast 464 859 23,500 1,250 Climbing Atlanta Center
Mon 18:32:44 33.8578 -83.1583 63° Northeast 470 871 24,800 1,500 Climbing Atlanta Center
Mon 18:33:44 33.9153 -83.0150 64° Northeast 470 871 26,500 1,550 Climbing Atlanta Center
Mon 18:34:44 33.9725 -82.8714 64° Northeast 465 861 27,900 1,350 Climbing Atlanta Center
Mon 18:35:44 34.0253 -82.7331 65° Northeast 465 861 29,200 1,200 Climbing Atlanta Center
Mon 18:36:44 34.0822 -82.5917 64° Northeast 459 850 30,300 1,150 Climbing Atlanta Center
Mon 18:37:44 34.1347 -82.4553 65° Northeast 453 838 31,500 1,000 Climbing Atlanta Center
Mon 18:38:44 34.1892 -82.3186 64° Northeast 448 830 32,300 650 Climbing Atlanta Center
Mon 18:39:44 34.2414 -82.1794 66° East 448 830 32,800 350 Climbing Atlanta Center
Mon 18:40:44 34.3061 -82.0472 59° Northeast 443 821 33,000 100 Climbing Atlanta Center
Mon 18:41:44 34.3728 -81.9147 59° Northeast 454 840 33,000  Level Atlanta Center
Mon 18:42:44 34.4392 -81.7794 59° Northeast 460 851 33,000  Level Atlanta Center
Mon 18:43:44 34.5097 -81.6442 58° Northeast 465 861 33,000  Level Atlanta Center
Mon 18:44:44 34.5758 -81.5058 60° Northeast 471 872 33,000  Level Atlanta Center
Mon 18:45:44 34.6419 -81.3725 59° Northeast 476 882 33,000  Level Atlanta Center
Mon 18:46:44 34.7097 -81.2339 59° Northeast 471 872 33,000  Level Atlanta Center
Mon 18:47:44 34.7775 -81.0928 60° Northeast 478 885 33,000  Level Atlanta Center
Mon 18:48:44 34.8408 -80.9589 60° Northeast 473 875 33,000  Level Atlanta Center
Mon 18:49:44 34.9103 -80.8169 59° Northeast 478 885 33,000  Level Atlanta Center
Mon 18:52:14 35.0781 -80.4650 60° Northeast 473 875 33,000  Level Washington Center
Mon 18:53:14 35.1531 -80.3119 59° Northeast 473 875 33,000  Level Washington Center
Mon 18:54:15 35.2233 -80.1686 59° Northeast 473 875 33,000  Level Washington Center
Mon 18:55:13 35.2936 -80.0225 59° Northeast 489 906 33,000  Level Washington Center
Mon 18:56:14 35.3453 -79.8622 68° East 489 906 33,000  Level Washington Center
Mon 18:57:15 35.3947 -79.7019 69° East 494 914 33,000  Level Washington Center
Mon 18:58:12 35.4439 -79.5464 69° East 499 924 33,000  Level Washington Center
Mon 18:59:14 35.4883 -79.4031 69° East 499 924 33,000  Level Washington Center
Mon 19:00:14 35.5328 -79.2444 71° East 499 924 33,000  Level Washington Center
Mon 19:01:13 35.5861 -79.0706 69° East 499 924 33,000  Level Washington Center
Mon 19:02:15 35.6344 -78.9092 70° East 494 914 33,000  Level Washington Center
Mon 19:03:12 35.6758 -78.7625 71° East 499 924 33,000  Level Washington Center
Mon 19:04:13 35.7261 -78.5983 69° East 504 933 33,000  Level Washington Center
Mon 19:05:13 35.7739 -78.4311 71° East 504 933 33,000  Level Washington Center
Mon 19:06:13 35.8194 -78.2689 71° East 504 933 33,000  Level Washington Center
Mon 19:07:13 35.8669 -78.1014 71° East 504 933 33,000  Level Washington Center
Mon 19:08:14 35.9142 -77.9336 71° East 504 933 33,000  Level Washington Center
Mon 19:09:15 35.9633 -77.7631 70° East 504 933 33,000  Level Washington Center
Mon 19:10:13 36.0347 -77.6133 59° Northeast 504 933 33,000  Level Washington Center
Mon 19:11:14 36.1225 -77.4769 51° Northeast 498 922 33,000  Level Washington Center
Mon 19:12:15 36.2103 -77.3244 54° Northeast 498 922 33,000  Level Washington Center
Mon 19:13:13 36.2978 -77.1872 52° Northeast 498 922 33,000  Level Washington Center
Mon 19:14:13 36.3831 -77.0472 53° Northeast 505 935 33,000  Level Washington Center
Mon 19:15:14 36.4681 -76.9067 53° Northeast 499 924 33,000  Level Washington Center
Mon 19:16:15 36.5531 -76.7683 53° Northeast 499 924 33,000  Level Washington Center
Mon 19:17:15 36.6378 -76.6300 53° Northeast 499 924 33,000  Level Washington Center
Mon 19:18:13 36.7222 -76.4833 54° Northeast 499 924 33,000  Level Washington Center
Mon 19:19:13 36.8067 -76.3469 52° Northeast 499 924 33,000  Level Washington Center
Mon 19:20:14 36.8847 -76.2203 52° Northeast 499 924 33,000  Level Washington Center
Mon 19:21:15 37.0081 -76.1381 28° Northeast 483 895 33,000  Level Washington Center
Mon 19:22:15 37.1336 -76.0739 22° Northeast 475 880 33,000  Level Washington Center
Mon 19:23:14 37.2589 -76.0067 23° Northeast 480 888 33,000  Level Washington Center
Mon 19:24:14 37.3864 -75.9394 23° Northeast 486 900 33,000  Level Washington Center
Mon 19:25:15 37.5158 -75.8694 23° Northeast 492 911 33,000  Level Washington Center
Mon 19:26:12 37.6369 -75.7858 29° Northeast 492 911 33,000  Level Washington Center
Mon 19:27:13 37.7561 -75.6942 31° Northeast 492 911 33,000  Level Washington Center
Mon 19:28:13 37.8769 -75.6050 30° Northeast 502 930 33,000  Level Washington Center
Mon 19:29:14 37.9978 -75.5128 31° Northeast 502 930 33,000 -50 Level Washington Center
Mon 19:30:14 38.1231 -75.4308 27° Northeast 502 930 32,900  Descending Washington Center
Mon 19:31:15 38.2481 -75.3511 27° Northeast 496 919 33,000 50 Climbing Washington Center
Mon 19:32:15 38.3728 -75.2658 28° Northeast 496 919 33,000  Level Washington Center
Mon 19:33:13 38.4978 -75.1886 26° Northeast 496 919 33,000  Level Washington Center
Mon 19:34:14 38.6225 -75.1056 27° Northeast 491 909 33,000 -49 Level Washington Center
Mon 19:35:15 38.7492 -75.0272 26° Northeast 491 909 32,900  Descending Washington Center
Mon 19:36:13 38.8719 -74.9464 27° Northeast 491 909 33,000 -454 Climbing Washington Center
Mon 19:37:14 38.9964 -74.8678 26° Northeast 491 909 32,000 -2,132 Descending Washington Center
Mon 19:38:14 39.1208 -74.7756 30° Northeast 491 909 28,700 -2,727 Descending Washington Center
Mon 19:39:15 39.2306 -74.6592 39° Northeast 497 921 26,500 -2,370 Descending Washington Center
Mon 19:40:13 39.3317 -74.5450 41° Northeast 497 921 24,000 -2,354 Descending Washington Center
Mon 19:42:44 39.5842 -74.2753 39° Northeast 455 843 18,300 -1,760 Descending New York Center
Mon 19:43:41 39.6575 -74.1953 40° Northeast 404 748 17,900 -712 Descending New York Center
Mon 19:44:42 39.7328 -74.1100 41° Northeast 364 674 16,900 -1,279 Descending New York Center
Mon 19:45:43 39.8081 -74.0269 40° Northeast 334 618 15,300 -1,714 Descending New York Center
Mon 19:46:41 39.8808 -73.9600 35° Northeast 316 586 13,500 -1,613 Descending New York Center
Mon 19:47:42 39.9508 -73.9119 28° Northeast 311 576 12,100 -1,200 Descending New York Center
Mon 19:48:41 40.0189 -73.8633 29° Northeast 291 539 11,100 -550 Descending New York Center
Mon 19:49:42 40.0914 -73.8069 31° Northeast 274 507 11,000 -98 Descending New York Center
Mon 19:50:43 40.1489 -73.7553 34° Northeast 274 507 10,900 -456 Descending New York Center
Mon 19:51:01 40.1833 -73.7333 26° Northeast 280 518 10,400 -1,385 Descending New York TRACON
Mon 19:52:01 40.2333 -73.6833 37° Northeast 268 496 9,100 -1,500 Descending New York TRACON
Mon 19:53:01 40.3000 -73.6333 30° Northeast 253 468 7,400 -1,260 Descending New York TRACON
Mon 19:53:41 40.3483 -73.6169 14° North 252 467 7,000 -238 Descending New York Center
Mon 19:54:42 40.4094 -73.5867 21° North 252 467 7,000  Level New York Center
Mon 19:55:01 40.4333 -73.5667 33° Northeast 258 478 7,000  Level New York TRACON
Mon 19:56:01 40.5000 -73.5333 21° North 262 486 7,000 -650 Level New York TRACON
Mon 19:57:01 40.5667 -73.5000 21° North 256 475 5,700 -952 Descending New York TRACON
Mon 19:58:07 40.6333 -73.4500 30° Northeast 233 431 5,000 -333 Descending New York TRACON
Mon 19:59:07 40.6667 -73.3833 57° Northeast 222 410 5,000  Level New York TRACON
Mon 20:00:01 40.7000 -73.3333 49° Northeast 220 407 5,000 -105 Level New York TRACON
Mon 20:01:01 40.7667 -73.3333 360° North 203 377 4,800 -571 Descending New York TRACON
Mon 20:02:07 40.8167 -73.3333 360° North 196 364 3,800 -900 Descending New York TRACON
Mon 20:03:01 40.8167 -73.3833 270° West 170 315 3,000 -400 Descending New York TRACON
Mon 20:04:07 40.8333 -73.4667 285° West 171 317 3,000 -286 Level New York TRACON
Mon 20:05:07 40.8333 -73.5167 270° West 171 317 2,400 -500 Descending New York TRACON
Mon 20:06:07 40.8167 -73.5833 252° West 184 341 2,000 -200 Descending New York TRACON
Mon 20:07:07 40.7833 -73.6333 229° Southwest 185 343 2,000  Level New York TRACON

Login

Don't have an account? Register now (free) for customized features, flight alerts, and more!